Time;durP1;ratioP1;P1;durP2;ratioP2;P2;SDS_P1;SDS_P2;PMS_P1;PMS_P2;Temp;Humidity;BMP_temperature;BMP_pressure;BME280_temperature;BME280_humidity;BME280_pressure;Samples;Min_cycle;Max_cycle;Signal;HPM_P1;HPM_P2
2021/11/05 00:01:45;;;;;;;;;6.00;6.00;;;;;17.65;53.02;98048.53;4815995;28;104212;-88
2021/11/05 00:04:12;;;;;;;;;7.00;6.33;;;;;17.66;52.97;98057.56;4815144;28;102331;-88
2021/11/05 00:06:39;;;;;;;;;7.00;6.67;;;;;17.64;53.12;98054.28;4779779;29;104492;-89
2021/11/05 00:09:06;;;;;;;;;5.33;5.33;;;;;17.64;52.60;98060.56;4823721;28;102667;-88
2021/11/05 00:11:37;;;;;;;;;7.33;7.00;;;;;17.64;52.55;98057.84;4792083;28;103147;-88
2021/11/05 00:14:05;;;;;;;;;7.00;7.00;;;;;17.62;53.07;98054.53;4755258;28;102758;-88
2021/11/05 00:16:32;;;;;;;;;6.67;6.00;;;;;17.62;53.05;98056.44;4816470;28;103905;-88
2021/11/05 00:19:02;;;;;;;;;7.00;7.00;;;;;17.61;53.36;98062.97;4816324;28;102343;-88
2021/11/05 00:21:29;;;;;;;;;4.67;4.67;;;;;17.60;52.47;98059.44;4798336;28;102735;-88
2021/11/05 00:23:56;;;;;;;;;7.00;6.00;;;;;17.59;53.04;98068.72;4787641;29;102832;-88
2021/11/05 00:26:23;;;;;;;;;4.67;4.00;;;;;17.59;52.68;98070.63;4782336;28;105230;-88
2021/11/05 00:28:50;;;;;;;;;6.00;6.00;;;;;17.57;52.69;98079.03;4797245;28;104772;-88
2021/11/05 00:31:17;;;;;;;;;5.00;5.00;;;;;17.58;53.03;98078.00;4760546;29;102644;-88
2021/11/05 00:33:44;;;;;;;;;6.33;6.00;;;;;17.58;53.00;98096.28;4799479;28;102821;-94
2021/11/05 00:36:14;;;;;;;;;6.00;5.33;;;;;17.56;53.50;98096.53;4808554;28;104373;-88
2021/11/05 00:38:43;;;;;;;;;5.33;5.33;;;;;17.56;52.83;98102.00;4828269;28;102520;-88
2021/11/05 00:41:11;;;;;;;;;5.00;5.00;;;;;17.56;53.50;98085.59;4818610;28;102487;-88
2021/11/05 00:43:38;;;;;;;;;5.67;5.67;;;;;17.55;52.59;98105.84;4805815;28;102587;-88
2021/11/05 00:46:06;;;;;;;;;5.00;5.00;;;;;17.54;52.38;98103.34;4812499;28;104232;-93
2021/11/05 00:48:33;;;;;;;;;5.00;5.00;;;;;17.53;52.67;98108.00;4823146;28;102239;-89
2021/11/05 00:51:01;;;;;;;;;6.00;4.33;;;;;17.53;53.45;98102.53;4787779;29;103646;-89
2021/11/05 00:53:28;;;;;;;;;5.00;5.00;;;;;17.52;52.57;98100.88;4817340;29;102616;-93
2021/11/05 00:55:55;;;;;;;;;5.67;4.67;;;;;17.50;52.91;98103.03;4802091;28;105633;-94
2021/11/05 00:58:22;;;;;;;;;4.00;4.00;;;;;17.51;52.53;98112.91;4806059;28;102661;-88
2021/11/05 01:00:49;;;;;;;;;4.00;4.00;;;;;17.49;53.23;98098.66;4794786;29;102654;-94
2021/11/05 01:03:16;;;;;;;;;4.00;4.00;;;;;17.48;53.41;98099.72;4751568;28;102813;-94
2021/11/05 01:05:43;;;;;;;;;5.67;4.67;;;;;17.48;52.62;98099.72;4800870;28;103830;-95
2021/11/05 01:08:12;;;;;;;;;4.00;4.00;;;;;17.47;52.59;98108.22;4813435;28;102188;-95
2021/11/05 01:10:39;;;;;;;;;4.00;4.00;;;;;17.44;52.70;98093.13;4793641;29;102300;-88
2021/11/05 01:13:07;;;;;;;;;3.67;3.67;;;;;17.46;53.04;98096.44;4792060;28;103899;-94
2021/11/05 01:15:35;;;;;;;;;5.00;5.00;;;;;17.45;52.41;98097.53;4818158;29;103101;-94
2021/11/05 01:18:04;;;;;;;;;6.00;5.00;;;;;17.44;52.34;98095.88;4800057;29;102293;-88
2021/11/05 01:20:31;;;;;;;;;5.67;4.67;;;;;17.45;52.40;98100.25;4823675;28;102450;-88
2021/11/05 01:22:58;;;;;;;;;5.00;4.00;;;;;17.45;52.97;98094.78;4812440;29;102264;-88
2021/11/05 01:25:26;;;;;;;;;5.33;4.00;;;;;17.43;52.39;98099.66;4819499;28;104066;-88
2021/11/05 01:27:53;;;;;;;;;4.33;4.00;;;;;17.44;52.93;98105.97;4813357;28;105968;-88
2021/11/05 01:30:20;;;;;;;;;5.67;5.00;;;;;17.42;52.94;98109.78;4813782;28;104524;-88
2021/11/05 01:32:47;;;;;;;;;5.00;4.00;;;;;17.42;52.83;98106.25;4826931;28;102296;-88
2021/11/05 01:35:15;;;;;;;;;5.00;5.00;;;;;17.41;53.11;98121.00;4802689;28;103965;-88
2021/11/05 01:37:42;;;;;;;;;3.67;3.67;;;;;17.41;52.40;98129.19;4813673;28;102341;-89
2021/11/05 01:40:09;;;;;;;;;4.33;4.00;;;;;17.39;52.72;98128.59;4797072;29;102566;-88
2021/11/05 01:42:37;;;;;;;;;4.00;3.00;;;;;17.39;52.79;98134.91;4799567;28;102410;-88
2021/11/05 01:45:06;;;;;;;;;3.33;3.00;;;;;17.37;52.36;98126.16;4786909;28;103784;-88
2021/11/05 01:47:42;;;;;;;;;4.00;4.00;;;;;17.35;53.07;98122.00;4610622;29;103053;-88
2021/11/05 01:50:10;;;;;;;;;5.33;5.00;;;;;17.36;52.87;98131.84;4760498;29;102373;-88
2021/11/05 01:52:41;;;;;;;;;3.00;3.00;;;;;17.38;52.36;98126.97;4774644;28;104880;-88
2021/11/05 01:55:08;;;;;;;;;4.67;3.00;;;;;17.35;53.34;98122.81;4819462;28;104021;-88
2021/11/05 01:57:35;;;;;;;;;4.33;3.00;;;;;17.35;52.72;98120.09;4805362;28;111770;-90
2021/11/05 02:00:03;;;;;;;;;4.00;4.00;;;;;17.36;53.26;98110.00;4819180;28;103349;-87
2021/11/05 02:02:30;;;;;;;;;5.00;4.33;;;;;17.35;52.50;98113.81;4713128;28;102465;-93
2021/11/05 02:04:57;;;;;;;;;4.00;4.00;;;;;17.34;52.45;98118.44;4783834;28;104397;-88
2021/11/05 02:07:26;;;;;;;;;6.33;4.33;;;;;17.34;52.42;98125.81;4773798;29;102471;-88
2021/11/05 02:09:57;;;;;;;;;6.67;5.00;;;;;17.34;52.53;98125.81;4756666;29;102948;-88
2021/11/05 02:12:24;;;;;;;;;3.33;3.33;;;;;17.32;52.81;98128.81;4792752;29;102609;-88
2021/11/05 02:14:51;;;;;;;;;4.67;4.00;;;;;17.32;52.47;98138.91;4812471;29;104075;-88
2021/11/05 02:17:18;;;;;;;;;3.33;3.33;;;;;17.32;52.09;98133.44;4815033;29;102285;-88
2021/11/05 02:19:46;;;;;;;;;3.00;3.00;;;;;17.30;52.68;98139.16;4785053;29;103113;-88
2021/11/05 02:22:13;;;;;;;;;4.00;3.00;;;;;17.30;52.66;98152.00;4787641;29;103659;-88
2021/11/05 02:24:41;;;;;;;;;4.33;3.00;;;;;17.28;52.83;98151.44;4810911;28;104089;-95
2021/11/05 02:27:09;;;;;;;;;5.33;3.67;;;;;17.25;53.12;98157.41;4794555;28;103117;-88
2021/11/05 02:29:36;;;;;;;;;3.00;3.00;;;;;17.28;52.49;98156.91;4818967;28;103685;-88
2021/11/05 02:32:04;;;;;;;;;4.00;3.33;;;;;17.28;52.57;98154.19;4812893;28;104176;-88
2021/11/05 02:34:32;;;;;;;;;3.33;3.00;;;;;17.28;52.35;98159.66;4797391;28;104484;-88
2021/11/05 02:37:02;;;;;;;;;4.00;4.00;;;;;17.27;52.70;98152.53;4811127;28;103118;-88
2021/11/05 02:39:30;;;;;;;;;5.00;5.00;;;;;17.27;52.17;98152.53;4816668;28;102372;-88
2021/11/05 02:41:57;;;;;;;;;3.00;3.00;;;;;17.26;52.68;98140.75;4809531;28;105628;-88
2021/11/05 02:44:24;;;;;;;;;4.00;3.00;;;;;17.26;52.36;98150.84;4799749;28;103804;-88
2021/11/05 02:46:51;;;;;;;;;3.00;3.00;;;;;17.26;53.19;98150.84;4806388;28;102685;-88
2021/11/05 02:49:18;;;;;;;;;3.33;3.00;;;;;17.24;52.28;98147.56;4804157;28;103694;-95
2021/11/05 02:51:47;;;;;;;;;3.67;3.00;;;;;17.25;52.13;98158.22;4804766;28;102593;-88
2021/11/05 02:54:14;;;;;;;;;5.00;5.00;;;;;17.23;52.62;98154.94;4812040;28;104026;-87
2021/11/05 02:56:41;;;;;;;;;3.67;2.67;;;;;17.23;52.54;98162.31;4804952;28;102704;-88
2021/11/05 02:59:08;;;;;;;;;3.33;3.33;;;;;17.23;52.71;98156.84;4803731;29;102728;-89
2021/11/05 03:01:36;;;;;;;;;3.00;3.00;;;;;17.22;52.84;98166.94;4809000;29;102554;-88
2021/11/05 03:04:05;;;;;;;;;4.33;3.00;;;;;17.21;52.32;98164.47;4821194;28;108886;-88
2021/11/05 03:06:38;;;;;;;;;3.33;2.67;;;;;17.20;51.65;98174.56;4814127;28;102739;-88
2021/11/05 03:09:16;;;;;;;;;3.00;3.00;;;;;17.20;51.75;98173.75;4807363;29;102328;-88
2021/11/05 03:11:43;;;;;;;;;3.67;3.00;;;;;17.20;52.62;98168.28;4816606;28;104088;-88
2021/11/05 03:14:10;;;;;;;;;3.67;3.33;;;;;17.19;52.50;98183.03;4801886;29;104413;-88
2021/11/05 03:16:38;;;;;;;;;2.00;2.00;;;;;17.17;52.66;98183.28;4805391;29;102937;-88
2021/11/05 03:19:05;;;;;;;;;2.67;2.33;;;;;17.19;52.04;98192.06;4820347;28;102300;-88
2021/11/05 03:21:34;;;;;;;;;3.67;3.00;;;;;17.15;52.20;98174.53;4772377;28;104920;-88
2021/11/05 03:24:03;;;;;;;;;2.00;2.00;;;;;17.18;52.25;98197.75;4763099;28;105319;-88
2021/11/05 03:26:30;;;;;;;;;5.00;3.00;;;;;17.17;52.88;98190.63;4822608;28;102601;-88
2021/11/05 03:28:57;;;;;;;;;4.00;4.00;;;;;17.17;52.06;98190.63;4814736;28;102545;-94
2021/11/05 03:31:24;;;;;;;;;2.00;2.00;;;;;17.15;52.50;98199.09;4810770;28;102968;-94
2021/11/05 03:33:51;;;;;;;;;2.00;2.00;;;;;17.15;52.55;98201.84;4823029;28;105478;-93
2021/11/05 03:36:18;;;;;;;;;4.33;4.00;;;;;17.14;52.16;98213.00;4814912;28;104852;-88
2021/11/05 03:38:46;;;;;;;;;2.33;2.33;;;;;17.14;52.36;98213.00;4818289;28;102155;-88
2021/11/05 03:41:13;;;;;;;;;3.00;3.00;;;;;17.14;51.94;98223.94;4828709;29;102874;-94
2021/11/05 03:43:40;;;;;;;;;4.00;2.67;;;;;17.12;52.01;98226.06;4814463;29;103924;-88
2021/11/05 03:46:07;;;;;;;;;3.00;2.00;;;;;17.11;52.56;98238.09;4816835;28;102535;-88
2021/11/05 03:48:39;;;;;;;;;3.00;2.00;;;;;17.12;52.49;98247.94;4822052;28;104552;-88
2021/11/05 03:51:08;;;;;;;;;4.00;3.67;;;;;17.11;52.41;98249.03;4818946;28;102699;-88
2021/11/05 03:53:35;;;;;;;;;2.00;2.00;;;;;17.10;52.60;98247.38;4804783;28;110308;-88
2021/11/05 03:56:03;;;;;;;;;4.67;3.00;;;;;17.10;52.62;98250.13;4815684;28;102663;-88
2021/11/05 03:58:30;;;;;;;;;2.00;2.00;;;;;17.10;52.13;98252.84;4797820;28;102656;-88
2021/11/05 04:00:57;;;;;;;;;2.33;2.33;;;;;17.10;52.05;98250.13;4814421;28;104013;-88
2021/11/05 04:03:24;;;;;;;;;5.33;2.00;;;;;17.10;51.82;98255.56;4807857;29;104392;-88
2021/11/05 04:05:51;;;;;;;;;3.00;3.00;;;;;17.09;52.81;98260.22;4800655;29;102352;-88
2021/11/05 04:08:18;;;;;;;;;2.00;2.00;;;;;17.08;52.43;98263.19;4795031;28;102385;-88
2021/11/05 04:10:46;;;;;;;;;2.33;2.33;;;;;17.08;52.27;98274.94;4803381;29;103286;-93
2021/11/05 04:13:14;;;;;;;;;3.67;3.00;;;;;17.07;52.23;98277.91;4802731;29;104388;-88
2021/11/05 04:15:41;;;;;;;;;5.33;3.00;;;;;17.06;52.76;98282.56;4806152;29;102588;-88
2021/11/05 04:18:08;;;;;;;;;3.00;2.00;;;;;17.07;52.25;98291.56;4810800;28;103523;-88
2021/11/05 04:20:35;;;;;;;;;3.00;2.33;;;;;17.05;52.60;98289.09;4817654;28;104360;-94
2021/11/05 04:23:06;;;;;;;;;4.00;3.00;;;;;17.05;52.20;98291.00;4815211;28;105825;-94
2021/11/05 04:25:36;;;;;;;;;2.67;2.67;;;;;17.04;52.58;98286.63;4802365;28;103675;-94
2021/11/05 04:28:06;;;;;;;;;3.00;1.67;;;;;17.04;52.16;98301.09;4811810;28;102199;-88
2021/11/05 04:30:33;;;;;;;;;2.33;2.00;;;;;17.03;52.57;98299.44;4815338;28;102608;-88
2021/11/05 04:33:00;;;;;;;;;2.00;2.00;;;;;17.02;52.14;98296.97;4828229;29;103920;-88
2021/11/05 04:35:28;;;;;;;;;1.00;1.00;;;;;17.03;52.21;98298.63;4815138;28;103381;-88
2021/11/05 04:37:55;;;;;;;;;3.00;3.00;;;;;17.03;52.54;98309.53;4803081;28;103598;-88
2021/11/05 04:40:22;;;;;;;;;3.00;3.00;;;;;17.03;52.05;98315.00;4820997;28;102204;-88
2021/11/05 04:42:49;;;;;;;;;2.00;2.00;;;;;17.01;52.30;98309.81;4822732;28;104042;-88
2021/11/05 04:45:15;;;;;;;;;2.00;2.00;;;;;17.00;52.01;98319.06;4803226;28;103091;-88
2021/11/05 04:47:43;;;;;;;;;2.00;2.00;;;;;17.02;52.20;98327.03;4820402;28;102403;-89
2021/11/05 04:50:10;;;;;;;;;2.67;2.00;;;;;17.01;52.54;98318.00;4822883;28;103457;-90
2021/11/05 04:52:37;;;;;;;;;2.00;2.00;;;;;17.00;52.07;98327.28;4819221;28;104346;-94
2021/11/05 04:55:05;;;;;;;;;2.00;2.00;;;;;17.00;52.33;98323.69;4821070;28;102630;-93
2021/11/05 04:57:33;;;;;;;;;2.33;2.33;;;;;16.99;51.87;98324.78;4815688;28;102438;-88
2021/11/05 05:00:00;;;;;;;;;1.00;1.00;;;;;16.98;52.88;98318.47;4794910;28;102278;-88
2021/11/05 05:02:27;;;;;;;;;2.00;2.00;;;;;16.98;52.65;98326.66;4817321;29;105625;-94
2021/11/05 05:04:55;;;;;;;;;2.00;2.00;;;;;16.97;53.09;98324.22;4817986;28;102735;-94
2021/11/05 05:07:22;;;;;;;;;1.00;1.00;;;;;16.94;51.61;98318.16;4816011;28;102448;-88
2021/11/05 05:09:49;;;;;;;;;2.00;2.00;;;;;16.97;52.42;98321.47;4826244;28;102399;-88
2021/11/05 05:12:19;;;;;;;;;3.67;2.67;;;;;16.94;52.46;98320.88;4820338;28;104388;-88
2021/11/05 05:14:46;;;;;;;;;0.00;0.00;;;;;16.95;52.00;98319.81;4816302;28;102161;-88
2021/11/05 05:17:12;;;;;;;;;2.33;2.33;;;;;16.93;52.58;98319.22;4800195;29;103931;-88
2021/11/05 05:19:39;;;;;;;;;2.00;2.00;;;;;16.94;52.10;98322.78;4817445;28;109092;-91
2021/11/05 05:22:09;;;;;;;;;3.00;2.00;;;;;16.93;51.84;98321.97;4801233;29;105610;-88
2021/11/05 05:24:36;;;;;;;;;2.00;2.00;;;;;16.93;52.48;98321.97;4817646;28;102234;-88
2021/11/05 05:27:04;;;;;;;;;2.00;1.67;;;;;16.93;51.75;98321.16;4795055;29;102277;-89
2021/11/05 05:29:31;;;;;;;;;3.00;3.00;;;;;16.92;52.60;98325.78;4812013;28;102530;-88
2021/11/05 05:31:58;;;;;;;;;2.00;2.00;;;;;16.93;51.76;98334.81;4823297;28;104377;-88
2021/11/05 05:34:25;;;;;;;;;2.00;2.00;;;;;16.93;52.48;98334.81;4820634;29;102519;-88
2021/11/05 05:36:52;;;;;;;;;1.00;1.00;;;;;16.91;52.17;98332.31;4804335;28;102539;-88
2021/11/05 05:39:19;;;;;;;;;3.00;2.00;;;;;16.90;51.79;98338.84;4819937;29;102246;-93
2021/11/05 05:41:46;;;;;;;;;2.00;2.00;;;;;16.90;52.24;98343.47;4814519;29;104322;-94
2021/11/05 05:44:13;;;;;;;;;2.00;2.00;;;;;16.90;52.08;98344.31;4804417;29;102515;-88
2021/11/05 05:46:40;;;;;;;;;1.00;1.00;;;;;16.90;52.07;98346.22;4817394;29;108281;-89
2021/11/05 05:49:07;;;;;;;;;1.00;1.00;;;;;16.88;52.25;98357.41;4823520;29;102322;-94
2021/11/05 05:51:34;;;;;;;;;2.00;2.00;;;;;16.87;51.59;98344.81;4820934;28;104337;-94
2021/11/05 05:54:02;;;;;;;;;1.33;1.33;;;;;16.88;52.04;98338.28;4805005;29;102657;-93
2021/11/05 05:56:29;;;;;;;;;2.00;2.00;;;;;16.86;52.25;98343.16;4825506;29;102878;-88
2021/11/05 05:58:56;;;;;;;;;2.00;2.00;;;;;16.85;52.38;98346.97;4803218;29;102435;-94
2021/11/05 06:01:23;;;;;;;;;2.00;2.00;;;;;16.86;52.59;98345.06;4811480;28;103100;-89
2021/11/05 06:03:50;;;;;;;;;1.00;1.00;;;;;16.86;52.06;98348.63;4824331;29;111107;-92
2021/11/05 06:06:17;;;;;;;;;3.00;2.00;;;;;16.86;52.55;98351.34;4823391;28;102416;-93
2021/11/05 06:08:44;;;;;;;;;1.33;1.33;;;;;16.86;52.36;98358.72;4821218;28;103799;-88
2021/11/05 06:11:12;;;;;;;;;1.67;1.33;;;;;16.86;52.24;98375.94;4825938;29;104107;-89
2021/11/05 06:13:39;;;;;;;;;1.33;1.33;;;;;16.86;52.11;98370.47;4815237;29;102107;-88
2021/11/05 06:16:07;;;;;;;;;2.67;2.00;;;;;16.84;52.00;98364.41;4820707;29;102523;-88
2021/11/05 06:18:35;;;;;;;;;1.00;1.00;;;;;16.84;51.94;98366.34;4815540;29;102622;-93
2021/11/05 06:21:04;;;;;;;;;1.00;1.00;;;;;16.84;52.09;98360.88;4805173;29;104406;-93
2021/11/05 06:23:31;;;;;;;;;2.00;2.00;;;;;16.84;52.08;98366.34;4809206;28;102373;-88
2021/11/05 06:25:58;;;;;;;;;1.67;1.33;;;;;16.83;52.33;98372.88;4807716;29;102248;-88
2021/11/05 06:28:25;;;;;;;;;2.00;1.00;;;;;16.84;52.08;98378.06;4815867;28;102208;-88
2021/11/05 06:30:53;;;;;;;;;1.00;1.00;;;;;16.82;52.15;98369.31;4813311;28;104170;-88
2021/11/05 06:33:20;;;;;;;;;3.00;2.00;;;;;16.83;52.43;98372.88;4820205;29;102595;-88
2021/11/05 06:35:47;;;;;;;;;2.00;1.33;;;;;16.82;51.81;98361.13;4816140;28;103793;-88
2021/11/05 06:38:14;;;;;;;;;3.00;1.33;;;;;16.83;51.62;98375.59;4816486;28;102873;-88
2021/11/05 06:40:41;;;;;;;;;1.67;1.33;;;;;16.82;52.13;98379.41;4820600;29;104373;-89
2021/11/05 06:43:09;;;;;;;;;1.00;1.00;;;;;16.80;51.87;98387.81;4821580;28;103693;-94
2021/11/05 06:45:36;;;;;;;;;0.67;0.67;;;;;16.82;52.40;98390.31;4812853;28;104657;-94
2021/11/05 06:48:03;;;;;;;;;2.33;1.00;;;;;16.81;51.32;98392.22;4817032;28;103684;-94
2021/11/05 06:50:30;;;;;;;;;1.00;1.00;;;;;16.81;51.61;98385.94;4807661;29;104108;-89
2021/11/05 06:52:57;;;;;;;;;2.00;1.00;;;;;16.80;51.80;98393.28;4815988;29;102602;-88
2021/11/05 06:55:24;;;;;;;;;2.00;1.00;;;;;16.82;51.91;98412.16;4796626;28;102448;-88
2021/11/05 06:57:51;;;;;;;;;0.67;0.67;;;;;16.79;51.92;98412.66;4821266;29;103702;-89
2021/11/05 07:00:18;;;;;;;;;2.33;2.33;;;;;16.80;51.42;98419.75;4818083;28;104134;-94
2021/11/05 07:02:45;;;;;;;;;1.00;1.00;;;;;16.80;51.80;98436.97;4819194;28;102310;-94
2021/11/05 07:05:14;;;;;;;;;1.00;1.00;;;;;16.80;52.27;98453.38;4816908;29;103420;-93
2021/11/05 07:07:41;;;;;;;;;1.00;1.00;;;;;16.81;52.33;98459.66;4807627;29;104856;-89
2021/11/05 07:10:10;;;;;;;;;1.33;1.33;;;;;16.77;52.06;98453.84;4709013;29;109146;-93
2021/11/05 07:12:51;;;;;;;;;1.33;1.33;;;;;16.77;52.39;98472.97;4763739;28;104375;-94
2021/11/05 07:15:19;;;;;;;;;3.00;2.00;;;;;16.80;51.70;98467.00;4799176;29;102549;-89
2021/11/05 07:17:46;;;;;;;;;1.00;1.00;;;;;16.78;51.58;98463.72;4813498;29;102606;-89
2021/11/05 07:20:14;;;;;;;;;1.00;1.00;;;;;16.78;51.45;98450.06;4826189;28;104038;-89
2021/11/05 07:22:42;;;;;;;;;1.00;1.00;;;;;16.76;52.11;98457.66;4824422;28;104416;-88
2021/11/05 07:25:10;;;;;;;;;2.00;2.00;;;;;16.78;52.36;98461.00;4792189;29;103042;-88
2021/11/05 07:27:38;;;;;;;;;2.67;1.00;;;;;16.77;52.29;98459.31;4820897;29;102636;-94
2021/11/05 07:30:08;;;;;;;;;1.00;1.00;;;;;16.78;51.76;98458.25;4806499;29;104317;-88
2021/11/05 07:32:36;;;;;;;;;1.33;1.33;;;;;16.78;51.69;98449.22;4816626;28;102192;-87
2021/11/05 07:35:05;;;;;;;;;1.00;1.00;;;;;16.78;51.57;98461.00;4802675;29;102356;-88
2021/11/05 07:37:33;;;;;;;;;1.00;1.00;;;;;16.75;52.02;98458.72;4812100;29;102272;-88
2021/11/05 07:40:01;;;;;;;;;2.00;1.00;;;;;16.76;52.20;98467.75;4800694;29;103842;-89
2021/11/05 07:42:29;;;;;;;;;1.67;1.00;;;;;16.77;52.04;98481.16;4821694;29;103409;-88
2021/11/05 07:44:56;;;;;;;;;1.00;1.00;;;;;16.77;52.22;98475.72;4826334;29;103019;-89
2021/11/05 07:47:23;;;;;;;;;1.00;1.00;;;;;16.77;51.71;98481.16;4823467;28;104178;-88
2021/11/05 07:49:51;;;;;;;;;2.00;1.33;;;;;16.76;52.01;98511.44;4828012;28;104311;-88
2021/11/05 07:52:18;;;;;;;;;1.00;1.00;;;;;16.77;51.56;98499.44;4816562;29;102541;-88
2021/11/05 07:54:48;;;;;;;;;1.00;1.00;;;;;16.77;52.16;98513.94;4805108;29;103584;-88
2021/11/05 07:57:18;;;;;;;;;1.00;1.00;;;;;16.76;51.52;98506.81;4823611;28;104649;-89
2021/11/05 07:59:45;;;;;;;;;1.33;1.33;;;;;16.77;51.79;98511.22;4826414;28;104116;-93
2021/11/05 08:02:13;;;;;;;;;1.00;1.00;;;;;16.76;51.85;98512.28;4826261;28;103948;-88
2021/11/05 08:04:40;;;;;;;;;1.00;1.00;;;;;16.77;51.74;98519.41;4815653;29;102701;-89
2021/11/05 08:07:07;;;;;;;;;1.00;1.00;;;;;16.78;51.83;98542.06;4829284;29;102626;-91
2021/11/05 08:09:34;;;;;;;;;1.00;1.00;;;;;16.78;51.44;98544.81;4826124;28;104411;-92
2021/11/05 08:12:08;;;;;;;;;1.00;1.00;;;;;16.77;51.32;98557.63;4824018;29;102419;-91
2021/11/05 08:14:39;;;;;;;;;2.00;1.00;;;;;16.74;52.10;98552.66;4799111;29;103197;-92
2021/11/05 08:17:06;;;;;;;;;1.00;1.00;;;;;16.78;51.34;98547.53;4821203;29;102699;-90
2021/11/05 08:19:33;;;;;;;;;1.00;1.00;;;;;16.79;52.07;98544.56;4800156;29;104194;-90
2021/11/05 08:22:03;;;;;;;;;1.00;1.00;;;;;16.81;51.85;98558.81;4804688;29;102544;-89
2021/11/05 08:24:30;;;;;;;;;1.00;1.00;;;;;16.82;51.75;98565.09;4819292;28;102262;-89
2021/11/05 08:26:58;;;;;;;;;1.67;1.67;;;;;16.81;51.92;98568.88;4826445;29;103648;-88
2021/11/05 08:29:27;;;;;;;;;1.67;1.67;;;;;16.81;51.96;98572.44;4815692;29;104073;-88
2021/11/05 08:31:55;;;;;;;;;2.00;1.00;;;;;16.77;52.53;98579.47;4822472;28;103597;-88
2021/11/05 08:34:22;;;;;;;;;0.67;0.00;;;;;16.77;51.78;98579.47;4786636;29;102687;-93
2021/11/05 08:36:49;;;;;;;;;2.00;1.33;;;;;16.80;52.38;98595.38;4814323;28;102421;-89
2021/11/05 08:39:16;;;;;;;;;2.00;2.00;;;;;16.81;51.74;98598.94;4822907;29;104264;-93
2021/11/05 08:41:43;;;;;;;;;1.00;1.00;;;;;16.80;52.16;98595.38;4827921;28;102455;-93
2021/11/05 08:44:11;;;;;;;;;1.00;1.00;;;;;16.81;52.04;98597.03;4825026;28;103193;-88
2021/11/05 08:46:38;;;;;;;;;1.00;1.00;;;;;16.82;51.77;98593.25;4830447;29;102254;-89
2021/11/05 08:49:09;;;;;;;;;1.00;1.00;;;;;16.81;52.14;98594.31;4820625;29;104098;-89
2021/11/05 08:51:38;;;;;;;;;2.00;2.00;;;;;16.83;52.09;98594.06;4814214;29;103536;-88
2021/11/05 08:54:06;;;;;;;;;1.00;1.00;;;;;16.82;52.59;98587.78;4811070;29;102161;-93
2021/11/05 08:56:32;;;;;;;;;2.00;1.33;;;;;16.83;52.61;98592.16;4819978;28;104419;-89
2021/11/05 08:59:00;;;;;;;;;1.00;1.00;;;;;16.81;52.11;98591.56;4809489;28;104347;-88
2021/11/05 09:01:27;;;;;;;;;3.00;1.33;;;;;16.83;52.28;98594.91;4773728;29;102515;-89
2021/11/05 09:03:54;;;;;;;;;1.00;1.00;;;;;16.83;52.29;98603.09;4789245;29;103337;-93
2021/11/05 09:06:21;;;;;;;;;1.00;1.00;;;;;16.84;52.03;98602.00;4808318;29;102484;-89
2021/11/05 09:08:51;;;;;;;;;1.00;1.00;;;;;16.84;52.70;98612.94;4824787;28;104108;-89
2021/11/05 09:11:18;;;;;;;;;1.67;1.00;;;;;16.85;52.47;98611.88;4796233;29;103148;-88
2021/11/05 09:13:45;;;;;;;;;1.00;1.00;;;;;16.85;52.58;98609.13;4822364;28;102441;-89
2021/11/05 09:16:12;;;;;;;;;0.33;0.33;;;;;16.85;52.77;98609.13;4833397;29;104727;-93
2021/11/05 09:18:41;;;;;;;;;1.00;1.00;;;;;16.86;53.00;98609.97;4825379;28;108954;-88
2021/11/05 09:21:08;;;;;;;;;1.00;1.00;;;;;16.86;52.35;98619.00;4808455;28;103568;-88
2021/11/05 09:23:35;;;;;;;;;1.00;1.00;;;;;16.86;51.97;98627.19;4821064;29;102616;-88
2021/11/05 09:26:02;;;;;;;;;1.33;1.33;;;;;16.84;52.82;98618.38;4799232;28;102521;-88
2021/11/05 09:28:29;;;;;;;;;2.00;2.00;;;;;16.86;52.41;98620.88;4813671;28;103335;-88
2021/11/05 09:30:57;;;;;;;;;1.00;1.00;;;;;16.87;52.42;98633.47;4812718;29;102684;-88
2021/11/05 09:33:23;;;;;;;;;1.33;1.00;;;;;16.86;51.99;98632.66;4813404;28;102370;-88
2021/11/05 09:35:50;;;;;;;;;1.67;1.67;;;;;16.86;52.15;98643.56;4820982;28;102230;-93
2021/11/05 09:38:17;;;;;;;;;1.33;1.00;;;;;16.84;53.06;98640.25;4818693;29;104108;-88
2021/11/05 09:40:45;;;;;;;;;1.00;1.00;;;;;16.87;52.15;98642.50;4807246;29;102724;-88
2021/11/05 09:43:12;;;;;;;;;2.00;1.00;;;;;16.86;52.08;98646.31;4821039;28;102687;-88
2021/11/05 09:45:39;;;;;;;;;2.00;1.00;;;;;16.87;52.83;98642.50;4814350;29;102464;-92
2021/11/05 09:48:06;;;;;;;;;1.00;0.67;;;;;16.86;52.38;98637.28;4825929;28;104276;-88
2021/11/05 09:50:33;;;;;;;;;1.67;1.33;;;;;16.86;51.89;98634.53;4816186;28;102499;-93
2021/11/05 09:53:01;;;;;;;;;1.00;1.00;;;;;16.87;52.14;98638.94;4818704;29;102316;-92
2021/11/05 09:55:28;;;;;;;;;1.00;1.00;;;;;16.86;52.97;98635.38;4817118;28;103794;-93
2021/11/05 09:57:56;;;;;;;;;1.00;0.00;;;;;16.88;52.24;98641.44;4814251;28;104327;-88
2021/11/05 10:00:27;;;;;;;;;1.00;1.00;;;;;16.88;53.12;98635.16;4821156;29;102164;-88
2021/11/05 10:02:55;;;;;;;;;1.00;1.00;;;;;16.87;52.56;98628.84;4817734;29;102121;-88
2021/11/05 10:05:22;;;;;;;;;1.00;1.00;;;;;16.88;53.15;98635.16;4806801;29;102168;-87
2021/11/05 10:07:49;;;;;;;;;1.00;1.00;;;;;16.89;52.17;98639.50;4805017;29;104734;-93
2021/11/05 10:10:40;;;;;;;;;2.33;1.00;;;;;16.88;53.02;98625.06;4804280;29;102653;-88
2021/11/05 10:13:11;;;;;;;;;2.00;1.00;;;;;16.88;52.76;98619.59;4806918;28;105167;-88
2021/11/05 10:15:44;;;;;;;;;1.67;1.00;;;;;16.90;52.79;98622.06;4750344;29;103481;-88
2021/11/05 10:18:15;;;;;;;;;0.67;0.00;;;;;16.90;52.74;98627.53;4810607;29;109113;-88
2021/11/05 10:20:46;;;;;;;;;2.00;1.00;;;;;16.89;52.78;98623.13;4825672;28;103727;-93
2021/11/05 10:23:16;;;;;;;;;0.33;0.33;;;;;16.90;52.14;98622.06;4811573;28;102663;-89
2021/11/05 10:25:51;;;;;;;;;1.00;1.00;;;;;16.90;53.14;98622.06;4824110;28;103711;-88
2021/11/05 10:28:25;;;;;;;;;2.00;1.67;;;;;16.90;52.92;98625.63;4824884;29;109210;-88
2021/11/05 10:31:12;;;;;;;;;1.00;1.00;;;;;16.91;52.29;98624.56;4806798;29;102744;-88
2021/11/05 10:33:48;;;;;;;;;2.00;2.00;;;;;16.90;52.35;98617.44;4820204;28;102337;-88
2021/11/05 10:36:21;;;;;;;;;1.00;1.00;;;;;16.92;53.26;98631.69;4821882;28;102506;-89
2021/11/05 10:39:00;;;;;;;;;2.00;1.33;;;;;16.93;53.02;98632.53;4820147;28;104160;-88
2021/11/05 10:41:29;;;;;;;;;0.00;0.00;;;;;16.92;53.40;98637.16;4810357;29;103171;-88
2021/11/05 10:44:00;;;;;;;;;2.00;1.33;;;;;16.93;53.75;98641.53;4786324;29;103947;-93
2021/11/05 10:46:39;;;;;;;;;1.00;1.00;;;;;16.95;53.95;98654.94;4819465;28;103014;-88
2021/11/05 10:49:26;;;;;;;;;0.00;0.00;;;;;16.95;54.15;98663.97;4799457;29;103851;-93
2021/11/05 10:52:16;;;;;;;;;1.00;1.00;;;;;16.97;53.74;98665.66;4797377;29;104753;-88
2021/11/05 10:54:57;;;;;;;;;1.00;1.00;;;;;16.97;53.94;98657.44;4822925;28;103630;-88
2021/11/05 10:57:40;;;;;;;;;1.00;1.00;;;;;16.98;53.75;98659.09;4814710;29;104374;-88
2021/11/05 11:00:25;;;;;;;;;2.00;2.00;;;;;16.98;53.27;98651.72;4787719;29;105696;-88
2021/11/05 11:02:53;;;;;;;;;2.00;1.00;;;;;16.98;53.21;98651.72;4797232;29;102411;-88
2021/11/05 11:05:31;;;;;;;;;1.00;0.33;;;;;16.99;52.97;98652.56;4800397;28;102797;-89
2021/11/05 11:08:02;;;;;;;;;1.00;1.00;;;;;16.97;53.88;98655.56;4804707;29;102774;-89
2021/11/05 11:10:34;;;;;;;;;1.00;1.00;;;;;17.01;52.98;98650.44;4787913;29;104078;-89
2021/11/05 11:13:01;;;;;;;;;3.00;2.00;;;;;17.03;54.00;98664.66;4821318;28;102519;-89
2021/11/05 11:15:33;;;;;;;;;3.00;2.00;;;;;17.04;53.16;98655.41;4821297;29;105717;-89
2021/11/05 11:18:00;;;;;;;;;2.00;1.67;;;;;17.04;53.44;98652.69;4820565;29;103437;-88
2021/11/05 11:20:33;;;;;;;;;1.00;1.00;;;;;17.06;54.17;98659.56;4790380;28;106260;-93
2021/11/05 11:23:01;;;;;;;;;1.00;1.00;;;;;17.07;53.30;98665.84;4821196;29;102277;-89
2021/11/05 11:25:31;;;;;;;;;1.00;1.00;;;;;17.09;53.72;98658.25;4816128;29;110243;-89
2021/11/05 11:27:58;;;;;;;;;1.67;1.00;;;;;17.09;52.77;98666.44;4818571;29;104692;-89
2021/11/05 11:30:25;;;;;;;;;2.00;1.00;;;;;17.10;52.81;98676.31;4819913;29;104587;-88